Terminal Aerodrome Forecast
Issued by NWS

Home | Current Version | Previous Version | Graphics & Text | Print | Product List | Glossary On
Versions: 1 2 3 4 5 6 7 8 9 10 11 12 13 14 15 16 17
025
FTUS43 KGRB 070520
TAFCWA
TAF
KCWA 070520Z 0706/0806 25014G24KT P6SM -SN BKN023
     FM071500 26018G31KT P6SM -SN BKN026
     FM080000 27014G24KT P6SM BKN026=

USA.gov is the U.S. government's official web portal to all federal, state and local government web resources and services.